Time;durP1;ratioP1;P1;durP2;ratioP2;P2;SDS_P1;SDS_P2;PMS_P1;PMS_P2;Temp;Humidity;BMP_temperature;BMP_pressure;BME280_temperature;BME280_humidity;BME280_pressure;Samples;Min_cycle;Max_cycle;Signal;HPM_P1;HPM_P2
2021/09/24 00:01:13;;;;;;;10.07;6.50;;;;;;;10.55;54.69;100441.16;5091026;28;20039;-22
2021/09/24 00:03:39;;;;;;;12.98;7.50;;;;;;;10.41;55.40;100457.16;5091132;28;20031;-22
2021/09/24 00:06:04;;;;;;;13.00;6.70;;;;;;;10.34;54.70;100429.72;5091128;28;20028;-23
2021/09/24 00:08:30;;;;;;;10.48;6.50;;;;;;;10.65;54.13;100455.69;5090713;28;20058;-22
2021/09/24 00:10:56;;;;;;;12.35;6.40;;;;;;;10.61;54.01;100459.00;5090952;28;20035;-22
2021/09/24 00:13:22;;;;;;;10.55;6.10;;;;;;;10.45;54.93;100458.41;5090661;28;20032;-23
2021/09/24 00:15:47;;;;;;;8.98;6.03;;;;;;;10.32;54.24;100439.78;5090964;28;20467;-22
2021/09/24 00:18:13;;;;;;;10.45;5.80;;;;;;;10.07;55.13;100458.19;5090850;28;20028;-22
2021/09/24 00:20:38;;;;;;;10.95;5.68;;;;;;;9.72;56.05;100437.09;5090446;28;20028;-22
2021/09/24 00:23:04;;;;;;;9.70;6.13;;;;;;;9.77;55.79;100433.84;5090663;28;20031;-22
2021/09/24 00:25:29;;;;;;;9.35;5.88;;;;;;;9.32;58.21;100436.25;5090440;28;20134;-22
2021/09/24 00:27:57;;;;;;;11.63;6.13;;;;;;;9.80;56.78;100449.41;5090433;28;20039;-22
2021/09/24 00:30:22;;;;;;;15.68;7.22;;;;;;;10.04;55.72;100451.44;5090370;28;20486;-22
2021/09/24 00:32:48;;;;;;;9.45;5.70;;;;;;;9.82;55.54;100431.38;5090222;28;20032;-22
2021/09/24 00:35:13;;;;;;;12.93;6.97;;;;;;;9.48;57.93;100445.66;5090174;28;20511;-23
2021/09/24 00:37:39;;;;;;;16.70;8.00;;;;;;;9.01;59.19;100446.38;5090297;28;20024;-22
2021/09/24 00:40:05;;;;;;;21.00;10.18;;;;;;;9.31;58.15;100438.06;5090282;28;20070;-22
2021/09/24 00:42:30;;;;;;;14.48;8.27;;;;;;;9.28;57.04;100422.50;5090290;28;20089;-22
2021/09/24 00:44:56;;;;;;;14.13;7.57;;;;;;;9.85;56.20;100437.09;5089873;28;20085;-23
2021/09/24 00:47:22;;;;;;;16.83;8.25;;;;;;;10.26;54.57;100428.06;5090161;28;20036;-22
2021/09/24 00:49:47;;;;;;;12.93;6.85;;;;;;;10.32;53.19;100426.44;5090265;28;20036;-22
2021/09/24 00:52:13;;;;;;;10.82;6.55;;;;;;;10.13;54.01;100437.91;5071984;28;20056;-22
2021/09/24 00:54:39;;;;;;;13.93;7.25;;;;;;;10.41;53.67;100446.50;5089833;28;20035;-22
2021/09/24 00:57:05;;;;;;;10.68;6.85;;;;;;;10.40;53.51;100428.88;5090306;28;20024;-21
2021/09/24 00:59:30;;;;;;;11.38;7.10;;;;;;;10.41;53.12;100408.38;5090080;28;20723;-22
2021/09/24 01:01:56;;;;;;;13.00;7.32;;;;;;;9.89;55.49;100415.38;5089722;28;20034;-22
2021/09/24 01:04:22;;;;;;;10.68;7.40;;;;;;;9.14;57.94;100428.81;5089962;28;20035;-21
2021/09/24 01:06:48;;;;;;;21.15;8.73;;;;;;;8.82;58.56;100431.97;5089552;28;20030;-21
2021/09/24 01:09:13;;;;;;;12.32;6.80;;;;;;;8.39;60.13;100426.81;5071767;28;20040;-21
2021/09/24 01:11:39;;;;;;;10.90;6.32;;;;;;;8.47;60.56;100420.56;5089687;28;20536;-22
2021/09/24 01:14:04;;;;;;;11.77;7.40;;;;;;;9.08;58.81;100403.81;5089662;28;20042;-21
2021/09/24 01:16:30;;;;;;;11.63;7.30;;;;;;;8.92;59.44;100414.81;5071572;28;20031;-22
2021/09/24 01:18:56;;;;;;;14.00;7.72;;;;;;;8.71;60.49;100419.25;5089429;28;20114;-23
2021/09/24 01:21:21;;;;;;;12.63;7.25;;;;;;;8.39;62.09;100420.69;5089497;28;20456;-22
2021/09/24 01:23:47;;;;;;;11.40;7.13;;;;;;;8.48;62.01;100419.56;5071800;28;20036;-21
2021/09/24 01:26:13;;;;;;;11.35;7.30;;;;;;;8.75;60.87;100404.53;5089687;28;20024;-21
2021/09/24 01:28:38;;;;;;;12.55;7.55;;;;;;;9.33;58.84;100390.75;5089214;28;20113;-22
2021/09/24 01:31:05;;;;;;;13.13;7.63;;;;;;;9.46;58.22;100408.63;5089516;28;20032;-22
2021/09/24 01:33:31;;;;;;;12.38;7.63;;;;;;;9.41;59.05;100413.72;5089228;28;20521;-22
2021/09/24 01:35:57;;;;;;;13.30;7.30;;;;;;;8.97;60.49;100396.41;5089420;28;20063;-22
2021/09/24 01:38:22;;;;;;;10.95;7.22;;;;;;;9.36;58.48;100405.53;5089468;28;20119;-21
2021/09/24 01:40:48;;;;;;;13.60;7.18;;;;;;;9.16;59.38;100400.97;5089144;28;20411;-21
2021/09/24 01:43:13;;;;;;;12.23;8.13;;;;;;;9.48;58.84;100411.91;5089069;28;20040;-22
2021/09/24 01:45:39;;;;;;;13.13;7.72;;;;;;;9.59;58.01;100395.31;5089362;28;20534;-21
2021/09/24 01:48:04;;;;;;;12.02;7.50;;;;;;;9.73;57.29;100379.34;5089163;28;20036;-22
2021/09/24 01:50:30;;;;;;;11.65;7.50;;;;;;;9.76;57.07;100394.91;5089381;28;20024;-22
2021/09/24 01:52:55;;;;;;;10.68;6.80;;;;;;;10.15;55.55;100399.34;5089138;28;20040;-22
2021/09/24 01:55:21;;;;;;;11.98;7.78;;;;;;;9.74;56.05;100386.28;5070915;28;20491;-22
2021/09/24 01:57:46;;;;;;;12.85;7.22;;;;;;;9.67;56.65;100396.13;5089077;28;20031;-22
2021/09/24 02:00:13;;;;;;;11.07;7.50;;;;;;;10.22;54.88;100386.84;5088887;28;20031;-22
2021/09/24 02:02:38;;;;;;;13.25;7.53;;;;;;;9.23;58.31;100395.66;5088593;28;20456;-22
2021/09/24 02:05:04;;;;;;;13.45;7.35;;;;;;;9.64;57.03;100395.53;5089053;28;20081;-21
2021/09/24 02:07:30;;;;;;;11.90;7.20;;;;;;;9.42;57.23;100383.44;5089035;28;20500;-21
2021/09/24 02:09:55;;;;;;;11.25;7.28;;;;;;;9.86;56.35;100379.31;5070985;28;20039;-22
2021/09/24 02:12:21;;;;;;;11.88;7.70;;;;;;;9.26;56.51;100368.66;5088835;28;20036;-21
2021/09/24 02:14:47;;;;;;;10.88;7.93;;;;;;;9.40;56.59;100374.81;5092229;28;20031;-21
2021/09/24 02:17:12;;;;;;;14.98;7.57;;;;;;;9.42;55.98;100375.44;5093174;28;20201;-22
2021/09/24 02:19:38;;;;;;;14.52;8.43;;;;;;;9.81;56.33;100379.94;5092987;28;20032;-22
2021/09/24 02:22:03;;;;;;;22.75;11.52;;;;;;;9.68;57.03;100381.78;5092877;28;20454;-22
2021/09/24 02:24:29;;;;;;;19.20;9.40;;;;;;;9.08;58.16;100371.91;5092994;28;20035;-22
2021/09/24 02:26:55;;;;;;;23.92;12.32;;;;;;;8.50;60.38;100352.88;5092975;28;20116;-21
2021/09/24 02:29:21;;;;;;;26.95;11.95;;;;;;;8.05;61.00;100335.47;5074979;28;20046;-21
2021/09/24 02:31:46;;;;;;;38.97;16.17;;;;;;;7.89;62.58;100365.00;5092611;28;20435;-21
2021/09/24 02:34:12;;;;;;;24.05;12.15;;;;;;;7.27;62.96;100379.78;5092729;28;20087;-22
2021/09/24 02:36:38;;;;;;;22.25;12.68;;;;;;;7.47;63.04;100369.34;5092343;28;20047;-21
2021/09/24 02:39:04;;;;;;;20.95;10.38;;;;;;;7.19;63.68;100370.13;5092727;28;20032;-22
2021/09/24 02:41:30;;;;;;;17.60;9.52;;;;;;;7.03;63.35;100362.41;5092926;28;20032;-21
2021/09/24 02:43:55;;;;;;;21.02;11.50;;;;;;;7.09;62.92;100372.28;5092578;28;20043;-22
2021/09/24 02:46:21;;;;;;;22.25;11.55;;;;;;;7.93;60.43;100379.53;5092650;28;20442;-22
2021/09/24 02:48:46;;;;;;;16.55;10.73;;;;;;;8.32;59.33;100375.47;5092245;28;20115;-22
2021/09/24 02:51:12;;;;;;;22.90;12.02;;;;;;;8.54;58.90;100367.41;5092564;28;20389;-22
2021/09/24 02:53:37;;;;;;;21.02;12.15;;;;;;;8.66;58.82;100384.44;5092980;28;20039;-22
2021/09/24 02:56:03;;;;;;;21.85;11.00;;;;;;;8.40;59.82;100380.63;5092271;28;20069;-22
2021/09/24 02:58:28;;;;;;;25.20;12.43;;;;;;;7.68;61.48;100373.81;5092277;28;20039;-22
2021/09/24 03:00:54;;;;;;;21.88;11.15;;;;;;;8.36;59.47;100373.25;5092097;28;20039;-22
2021/09/24 03:03:19;;;;;;;23.25;10.85;;;;;;;8.53;58.37;100373.75;5092239;28;20484;-21
2021/09/24 03:05:45;;;;;;;24.48;11.93;;;;;;;8.64;58.67;100371.38;5091941;28;20016;-22
2021/09/24 03:08:10;;;;;;;24.45;12.02;;;;;;;8.80;57.87;100374.69;5092590;28;20040;-23
2021/09/24 03:10:36;;;;;;;36.90;11.93;;;;;;;8.68;57.95;100376.28;5073534;28;20028;-20
2021/09/24 03:13:02;;;;;;;38.95;17.88;;;;;;;8.41;58.90;100371.66;5091981;28;20032;-21
2021/09/24 03:15:28;;;;;;;44.55;20.80;;;;;;;8.04;60.10;100371.00;5092001;28;20028;-22
2021/09/24 03:17:54;;;;;;;58.13;26.88;;;;;;;8.34;59.22;100372.63;5091982;28;20082;-22
2021/09/24 03:20:19;;;;;;;50.97;23.63;;;;;;;8.36;58.64;100376.72;5091981;28;20495;-23
2021/09/24 03:22:45;;;;;;;55.25;23.15;;;;;;;8.09;58.78;100351.84;5091650;28;20067;-22
2021/09/24 03:25:10;;;;;;;40.40;17.50;;;;;;;8.12;59.02;100362.06;5091788;28;20515;-22
2021/09/24 03:27:36;;;;;;;35.70;15.82;;;;;;;8.51;57.97;100351.88;5091770;28;20028;-21
2021/09/24 03:30:03;;;;;;;34.65;15.45;;;;;;;8.59;57.70;100362.34;5091461;28;20070;-21
2021/09/24 03:32:28;;;;;;;51.47;21.48;;;;;;;8.97;56.76;100369.81;5091875;28;20132;-21
2021/09/24 03:34:53;;;;;;;46.47;19.90;;;;;;;8.84;56.71;100370.59;5091083;28;20098;-21
2021/09/24 03:37:19;;;;;;;42.10;17.60;;;;;;;8.48;57.24;100360.22;5091657;28;20539;-22
2021/09/24 03:39:44;;;;;;;42.22;17.05;;;;;;;8.94;56.47;100359.59;5091578;28;20035;-21
2021/09/24 03:42:10;;;;;;;28.73;12.90;;;;;;;8.52;56.77;100362.31;5091376;28;20028;-22
2021/09/24 03:44:36;;;;;;;22.33;11.07;;;;;;;8.49;57.53;100381.31;5091220;28;20058;-21
2021/09/24 03:47:02;;;;;;;31.92;14.35;;;;;;;8.25;59.31;100382.56;5091343;28;20036;-22
2021/09/24 03:49:27;;;;;;;34.78;14.55;;;;;;;8.34;58.92;100365.47;5091194;28;20402;-21
2021/09/24 03:51:53;;;;;;;23.70;11.07;;;;;;;7.83;60.00;100379.84;5091253;28;20381;-22
2021/09/24 03:54:18;;;;;;;21.95;10.00;;;;;;;7.81;60.79;100381.88;5091369;28;20046;-22
2021/09/24 03:56:44;;;;;;;27.35;11.43;;;;;;;7.92;60.23;100387.69;5090950;28;20035;-22
2021/09/24 03:59:12;;;;;;;21.13;10.73;;;;;;;8.17;58.91;100385.38;5091219;28;20035;-21
2021/09/24 04:01:38;;;;;;;22.65;10.35;;;;;;;8.19;58.46;100357.63;5091104;28;20492;-22
2021/09/24 04:04:04;;;;;;;23.63;9.50;;;;;;;8.35;58.55;100372.41;5091018;28;20024;-21
2021/09/24 04:06:30;;;;;;;15.90;8.73;;;;;;;8.22;58.68;100364.38;5090892;28;20035;-22
2021/09/24 04:08:55;;;;;;;29.25;12.77;;;;;;;8.47;58.02;100374.56;5091115;28;20028;-21
2021/09/24 04:11:21;;;;;;;32.50;12.35;;;;;;;7.86;60.06;100373.34;5090821;28;20032;-21
2021/09/24 04:13:46;;;;;;;16.42;8.02;;;;;;;7.41;61.80;100370.13;5091228;28;20035;-22
2021/09/24 04:16:12;;;;;;;16.02;7.78;;;;;;;6.84;63.27;100354.06;5090793;28;20032;-22
2021/09/24 04:18:37;;;;;;;20.50;9.23;;;;;;;7.17;61.91;100371.31;5090547;28;20031;-21
2021/09/24 04:21:03;;;;;;;19.88;8.63;;;;;;;6.96;61.57;100362.34;5090857;28;20096;-21
2021/09/24 04:23:28;;;;;;;13.73;7.85;;;;;;;6.56;63.36;100382.25;5090707;28;20057;-21
2021/09/24 04:25:53;;;;;;;18.00;8.68;;;;;;;6.60;63.49;100379.06;5090541;28;20035;-22
2021/09/24 04:28:19;;;;;;;15.82;7.97;;;;;;;6.71;63.24;100369.81;5090665;28;20027;-21
2021/09/24 04:30:44;;;;;;;19.30;9.10;;;;;;;6.78;63.43;100377.81;5090340;28;20404;-21
2021/09/24 04:33:10;;;;;;;33.28;9.70;;;;;;;6.39;64.24;100373.69;5090198;28;20036;-22
2021/09/24 04:35:35;;;;;;;16.60;8.45;;;;;;;6.39;63.72;100379.78;5072444;28;20028;-21
2021/09/24 04:38:01;;;;;;;14.57;7.35;;;;;;;6.15;65.11;100380.06;5089681;28;20036;-22
2021/09/24 04:40:27;;;;;;;16.85;8.90;;;;;;;6.62;63.30;100385.00;5090121;28;20093;-22
2021/09/24 04:42:52;;;;;;;22.83;8.90;;;;;;;7.20;61.72;100395.63;5071967;28;20032;-22
2021/09/24 04:45:17;;;;;;;51.65;24.42;;;;;;;7.84;60.94;100372.72;5090216;28;20027;-21
2021/09/24 04:47:43;;;;;;;59.75;22.23;;;;;;;8.19;59.16;100372.72;5090524;28;20032;-22
2021/09/24 04:50:09;;;;;;;38.90;15.65;;;;;;;7.70;61.04;100377.09;5090323;28;20027;-21
2021/09/24 04:52:34;;;;;;;36.63;14.70;;;;;;;7.38;62.12;100333.38;5089884;28;20399;-21
2021/09/24 04:55:00;;;;;;;28.10;11.55;;;;;;;7.37;62.87;100355.59;5089971;28;20028;-21
2021/09/24 04:57:25;;;;;;;21.77;9.70;;;;;;;7.07;63.08;100369.00;5090067;28;20036;-22
2021/09/24 04:59:51;;;;;;;21.55;8.93;;;;;;;6.89;63.49;100372.06;5090053;28;20036;-21
2021/09/24 05:02:16;;;;;;;17.63;8.23;;;;;;;6.82;65.20;100372.00;5089925;28;20495;-22
2021/09/24 05:04:42;;;;;;;15.30;8.57;;;;;;;6.69;65.64;100355.91;5089703;28;20035;-21
2021/09/24 05:07:08;;;;;;;14.82;8.18;;;;;;;6.95;65.39;100357.25;5090248;28;20062;-21
2021/09/24 05:09:33;;;;;;;10.85;7.35;;;;;;;7.58;63.17;100376.81;5089822;28;20392;-23
2021/09/24 05:11:59;;;;;;;11.57;7.38;;;;;;;8.07;61.83;100364.50;5089879;28;20028;-22
2021/09/24 05:14:24;;;;;;;11.88;7.28;;;;;;;8.38;60.97;100371.22;5089641;28;20121;-22
2021/09/24 05:16:50;;;;;;;10.57;7.07;;;;;;;8.09;62.10;100374.91;5089702;28;20033;-22
2021/09/24 05:19:15;;;;;;;10.48;7.75;;;;;;;7.92;63.59;100364.59;5090145;28;20491;-21
2021/09/24 05:21:41;;;;;;;11.20;7.07;;;;;;;7.99;63.59;100368.13;5089805;28;20064;-22
2021/09/24 05:24:06;;;;;;;10.95;6.65;;;;;;;8.45;61.83;100383.53;5089597;28;20036;-22
2021/09/24 05:26:32;;;;;;;10.52;6.80;;;;;;;8.70;61.22;100377.69;5089093;28;20035;-21
2021/09/24 05:28:57;;;;;;;10.95;6.90;;;;;;;8.90;60.88;100379.63;5089474;28;20088;-21
2021/09/24 05:31:23;;;;;;;11.15;7.18;;;;;;;9.47;59.02;100385.47;5089467;28;20039;-21
2021/09/24 05:33:48;;;;;;;12.45;7.10;;;;;;;9.56;57.70;100371.75;5089092;28;20177;-22
2021/09/24 05:36:14;;;;;;;11.82;7.57;;;;;;;10.04;56.72;100387.50;5089320;28;20479;-22
2021/09/24 05:38:40;;;;;;;12.63;7.57;;;;;;;9.87;57.31;100375.66;5089122;28;20067;-21
2021/09/24 05:41:06;;;;;;;16.00;9.07;;;;;;;9.57;57.57;100360.06;5089220;28;20114;-21
2021/09/24 05:43:32;;;;;;;14.93;8.93;;;;;;;9.63;57.64;100369.91;5089598;28;20065;-22
2021/09/24 05:45:57;;;;;;;12.95;8.18;;;;;;;9.50;59.60;100375.25;5089085;28;20102;-23
2021/09/24 05:48:23;;;;;;;11.57;7.80;;;;;;;9.58;58.76;100367.06;5088279;28;20032;-24
2021/09/24 05:50:48;;;;;;;11.98;8.45;;;;;;;10.25;56.75;100369.63;5089349;28;20045;-24
2021/09/24 05:53:14;;;;;;;14.43;8.48;;;;;;;10.15;56.30;100350.56;5089091;28;20039;-20
2021/09/24 05:55:40;;;;;;;12.57;7.75;;;;;;;10.63;55.31;100377.72;5088956;28;20089;-21
2021/09/24 05:58:05;;;;;;;13.82;8.18;;;;;;;11.02;54.47;100369.75;5089182;28;20035;-20
2021/09/24 06:00:31;;;;;;;19.88;8.77;;;;;;;10.96;54.25;100375.94;5089267;28;20035;-21
2021/09/24 06:02:56;;;;;;;15.43;10.15;;;;;;;11.21;53.56;100376.81;5089016;28;20028;-20
2021/09/24 06:05:22;;;;;;;16.58;10.63;;;;;;;10.88;53.93;100352.19;5088891;28;20028;-21
2021/09/24 06:07:47;;;;;;;15.68;10.93;;;;;;;10.92;54.10;100351.53;5088957;28;20031;-21
2021/09/24 06:10:15;;;;;;;15.95;10.35;;;;;;;11.23;53.43;100364.06;5088958;28;20407;-21
2021/09/24 06:12:40;;;;;;;16.35;10.40;;;;;;;11.36;53.41;100351.66;5088724;28;20028;-20
2021/09/24 06:15:06;;;;;;;15.63;9.90;;;;;;;11.57;53.16;100364.63;5088756;28;20081;-20
2021/09/24 06:17:32;;;;;;;15.85;10.00;;;;;;;11.58;52.06;100339.53;5088888;28;20028;-21
2021/09/24 06:19:57;;;;;;;13.35;9.65;;;;;;;11.45;53.52;100350.34;5088960;28;20035;-21
2021/09/24 06:22:26;;;;;;;17.48;11.52;;;;;;;11.66;53.13;100341.94;5088735;28;20039;-21
2021/09/24 06:24:51;;;;;;;;;;;;;;;12.02;52.34;100332.38;5088898;28;20036;-21
2021/09/24 06:27:17;;;;;;;14.07;8.50;;;;;;;12.19;51.26;100329.94;5088896;28;20340;-21
2021/09/24 06:29:44;;;;;;;16.67;10.95;;;;;;;12.64;50.87;100336.81;5088481;28;20028;-21
2021/09/24 06:32:10;;;;;;;11.18;6.70;;;;;;;12.94;49.30;100322.63;5088452;28;20072;-21
2021/09/24 06:34:35;;;;;;;9.68;6.63;;;;;;;12.94;49.54;100325.31;5087590;28;20113;-20
2021/09/24 06:37:02;;;;;;;11.43;7.20;;;;;;;12.89;48.84;100317.13;5088618;28;20035;-21
2021/09/24 06:39:27;;;;;;;10.13;6.50;;;;;;;13.04;48.06;100314.88;5088526;28;20024;-20
2021/09/24 06:41:53;;;;;;;14.35;6.20;;;;;;;13.17;48.45;100336.06;5088629;28;20028;-21
2021/09/24 06:44:18;;;;;;;10.40;6.05;;;;;;;13.20;47.81;100327.59;5088564;28;20565;-20
2021/09/24 06:46:43;;;;;;;10.48;6.15;;;;;;;13.52;47.61;100327.31;5088487;28;20031;-21
2021/09/24 06:49:09;;;;;;;15.93;7.55;;;;;;;13.78;47.03;100319.88;5088622;28;20039;-20
2021/09/24 06:51:34;;;;;;;12.35;6.10;;;;;;;13.58;46.69;100329.06;5088491;28;20024;-20
2021/09/24 06:54:00;;;;;;;9.23;5.80;;;;;;;13.54;46.88;100309.13;5088412;28;20032;-21
2021/09/24 06:56:25;;;;;;;9.70;5.80;;;;;;;13.49;46.67;100301.00;5088542;28;20024;-21
2021/09/24 06:58:51;;;;;;;9.85;5.95;;;;;;;13.60;46.79;100321.59;5088316;28;20411;-20
2021/09/24 07:01:16;;;;;;;10.73;6.80;;;;;;;13.96;46.97;100314.38;5092433;28;20507;-21
2021/09/24 07:03:42;;;;;;;10.07;6.03;;;;;;;14.20;46.07;100314.31;5092312;28;20043;-21
2021/09/24 07:06:07;;;;;;;10.35;5.78;;;;;;;14.36;44.92;100316.25;5092057;28;20024;-20
2021/09/24 07:08:33;;;;;;;8.60;5.47;;;;;;;14.44;44.10;100325.81;5091883;28;20039;-21
2021/09/24 07:10:58;;;;;;;9.30;6.18;;;;;;;14.24;44.58;100320.84;5092156;28;20035;-21
2021/09/24 07:13:24;;;;;;;8.20;5.45;;;;;;;13.85;44.69;100318.72;5092437;28;20036;-20
2021/09/24 07:15:49;;;;;;;7.50;5.32;;;;;;;13.94;44.87;100313.78;5092396;28;20035;-21
2021/09/24 07:18:15;;;;;;;9.10;5.65;;;;;;;13.92;45.00;100310.53;5092050;28;20033;-20
2021/09/24 07:20:40;;;;;;;12.35;6.13;;;;;;;14.17;44.53;100318.28;5091809;28;20043;-20
2021/09/24 07:23:06;;;;;;;10.32;5.63;;;;;;;14.51;43.48;100323.00;5091813;28;20028;-20
2021/09/24 07:25:31;;;;;;;9.45;6.72;;;;;;;14.55;44.90;100332.22;5091769;28;20101;-21
2021/09/24 07:27:57;;;;;;;12.13;6.82;;;;;;;14.98;43.64;100334.41;5091816;28;20120;-21
2021/09/24 07:30:22;;;;;;;10.10;5.75;;;;;;;14.89;43.24;100335.03;5091515;28;20036;-21
2021/09/24 07:32:48;;;;;;;10.52;6.00;;;;;;;15.16;42.92;100341.44;5091485;28;20110;-21
2021/09/24 07:35:13;;;;;;;8.15;5.38;;;;;;;15.00;42.78;100342.22;5091524;28;20067;-21
2021/09/24 07:37:39;;;;;;;8.52;5.20;;;;;;;14.65;43.24;100340.50;5091452;28;20028;-20
2021/09/24 07:40:05;;;;;;;8.13;5.50;;;;;;;14.89;42.82;100343.06;5091502;28;20028;-21
2021/09/24 07:42:30;;;;;;;9.68;5.70;;;;;;;14.79;43.03;100336.47;5091575;28;20020;-21
2021/09/24 07:44:56;;;;;;;7.55;5.22;;;;;;;15.06;42.33;100347.44;5091060;28;20038;-20
2021/09/24 07:47:21;;;;;;;9.63;5.55;;;;;;;15.42;42.00;100348.03;5091503;28;20427;-21
2021/09/24 07:49:47;;;;;;;9.30;5.72;;;;;;;15.62;41.30;100344.84;5091498;28;20039;-21
2021/09/24 07:52:13;;;;;;;9.77;6.18;;;;;;;15.84;40.59;100326.13;5091185;28;20028;-20
2021/09/24 07:54:39;;;;;;;11.18;5.68;;;;;;;16.22;42.07;100315.59;5091196;28;20031;-21
2021/09/24 07:57:04;;;;;;;9.90;6.75;;;;;;;16.52;40.99;100320.53;5091866;28;20047;-20
2021/09/24 07:59:30;;;;;;;12.90;6.20;;;;;;;16.45;39.39;100328.00;5091188;28;20036;-21
2021/09/24 08:01:55;;;;;;;13.23;6.78;;;;;;;16.50;39.42;100329.91;5091279;28;20085;-21
2021/09/24 08:04:21;;;;;;;9.25;6.20;;;;;;;16.56;38.97;100331.59;5091262;28;20043;-21
2021/09/24 08:06:46;;;;;;;10.77;6.63;;;;;;;16.44;38.93;100316.38;5090754;28;20083;-21
2021/09/24 08:09:12;;;;;;;9.90;6.43;;;;;;;16.42;40.67;100305.06;5091033;28;20043;-20
2021/09/24 08:11:37;;;;;;;10.52;6.90;;;;;;;17.03;39.50;100304.09;5090432;28;20031;-21
2021/09/24 08:14:03;;;;;;;12.60;7.22;;;;;;;17.36;38.65;100307.59;5090568;28;20059;-21
2021/09/24 08:16:29;;;;;;;10.68;6.38;;;;;;;17.67;38.66;100311.31;5090975;28;20124;-21
2021/09/24 08:18:54;;;;;;;8.40;5.15;;;;;;;17.10;36.62;100296.63;5090414;28;20052;-21
2021/09/24 08:21:22;;;;;;;10.70;5.65;;;;;;;17.38;37.15;100319.75;5090694;28;20034;-21
2021/09/24 08:23:47;;;;;;;9.37;5.90;;;;;;;17.17;36.41;100310.69;5090936;28;20039;-21
2021/09/24 08:26:13;;;;;;;7.80;4.78;;;;;;;17.44;36.40;100323.31;5090573;28;20024;-21
2021/09/24 08:28:38;;;;;;;7.25;4.60;;;;;;;17.31;35.58;100321.06;5090390;28;20090;-20
2021/09/24 08:31:04;;;;;;;8.63;5.43;;;;;;;17.04;36.45;100313.81;5090525;28;20153;-21
2021/09/24 08:33:29;;;;;;;7.90;4.90;;;;;;;17.06;36.63;100293.63;5090341;28;20048;-21
2021/09/24 08:35:55;;;;;;;8.88;4.68;;;;;;;17.25;36.59;100296.75;5090594;28;20078;-21
2021/09/24 08:38:20;;;;;;;7.57;4.53;;;;;;;17.12;36.33;100297.19;5090383;28;20031;-21
2021/09/24 08:40:46;;;;;;;7.65;4.60;;;;;;;17.07;36.63;100295.25;5090206;28;20471;-20
2021/09/24 08:43:12;;;;;;;8.00;4.65;;;;;;;17.53;36.13;100302.91;5090321;28;20040;-21
2021/09/24 08:45:37;;;;;;;6.60;4.30;;;;;;;17.93;35.60;100285.34;5090235;28;20111;-20
2021/09/24 08:48:05;;;;;;;6.43;4.22;;;;;;;18.20;35.32;100279.00;5090340;28;20465;-20
2021/09/24 08:50:32;;;;;;;6.90;4.60;;;;;;;18.09;34.10;100274.63;5090020;28;20023;-20
2021/09/24 08:52:57;;;;;;;6.88;4.68;;;;;;;17.92;35.04;100267.56;5090289;28;20063;-21
2021/09/24 08:55:23;;;;;;;6.85;4.47;;;;;;;18.35;34.57;100270.13;5090060;28;20020;-21
2021/09/24 08:57:49;;;;;;;6.57;4.43;;;;;;;18.35;35.33;100262.03;5090301;28;20059;-20
2021/09/24 09:00:15;;;;;;;7.75;4.82;;;;;;;18.44;35.08;100268.53;5090146;28;20024;-21
2021/09/24 09:03:07;;;;;;;7.55;4.45;;;;;;;18.79;33.26;100254.31;5089760;28;20027;-20
2021/09/24 09:05:37;;;;;;;6.03;4.45;;;;;;;18.89;33.35;100268.94;5090068;28;20028;-21
2021/09/24 09:08:08;;;;;;;8.15;5.15;;;;;;;18.91;33.34;100266.75;5089786;28;20028;-21
2021/09/24 09:10:38;;;;;;;6.88;4.28;;;;;;;19.17;35.00;100276.50;5089799;28;20024;-21
2021/09/24 09:13:08;;;;;;;6.20;4.22;;;;;;;19.21;32.63;100265.97;5089670;28;20820;-20
2021/09/24 09:15:33;;;;;;;8.90;4.50;;;;;;;19.24;33.09;100249.97;5089583;28;20058;-21
2021/09/24 09:17:58;;;;;;;7.32;4.45;;;;;;;19.78;33.36;100236.94;5089764;28;20024;-21
2021/09/24 09:20:27;;;;;;;7.03;4.13;;;;;;;19.38;32.40;100249.44;5089681;28;20032;-21
2021/09/24 09:23:06;;;;;;;7.85;4.18;;;;;;;18.99;33.66;100237.31;5089247;28;20036;-20
2021/09/24 09:25:42;;;;;;;7.18;4.40;;;;;;;19.20;32.95;100215.66;5089643;28;20032;-21
2021/09/24 09:28:24;;;;;;;6.28;4.32;;;;;;;19.47;33.76;100236.97;5089550;28;20157;-21
2021/09/24 09:30:49;;;;;;;6.78;4.07;;;;;;;19.54;33.16;100220.47;5089337;28;20054;-21
2021/09/24 09:33:17;;;;;;;7.40;4.60;;;;;;;19.78;32.69;100209.88;5089162;28;20488;-20
2021/09/24 09:35:45;;;;;;;6.45;4.93;;;;;;;20.09;31.58;100218.66;5089488;28;20038;-20
2021/09/24 09:38:40;;;;;;;7.47;4.65;;;;;;;20.12;32.37;100211.88;5089405;28;20059;-20
2021/09/24 09:41:13;;;;;;;7.22;4.25;;;;;;;20.40;32.35;100200.34;5088156;28;20131;-21
2021/09/24 09:43:44;;;;;;;6.35;4.13;;;;;;;20.11;32.17;100197.53;5089261;28;20032;-20
2021/09/24 09:46:15;;;;;;;7.03;4.40;;;;;;;20.28;30.96;100189.03;5089231;28;20020;-21
2021/09/24 09:48:41;;;;;;;9.05;5.43;;;;;;;20.12;31.91;100199.13;5089004;28;20027;-20
2021/09/24 09:51:06;;;;;;;8.23;5.00;;;;;;;20.16;31.49;100180.44;5089242;28;20043;-20
2021/09/24 09:53:32;;;;;;;8.00;4.43;;;;;;;20.13;31.49;100186.44;5089407;28;20244;-21
2021/09/24 09:56:05;;;;;;;6.00;4.25;;;;;;;20.74;31.67;100198.75;5088839;28;20020;-20
2021/09/24 09:58:32;;;;;;;7.05;4.25;;;;;;;21.01;31.33;100199.09;5089367;28;20055;-21
2021/09/24 10:01:03;;;;;;;6.63;4.13;;;;;;;20.80;30.93;100197.63;5089278;28;20028;-21
2021/09/24 10:03:55;;;;;;;5.15;3.72;;;;;;;21.42;29.88;100196.00;5088847;28;20044;-20
2021/09/24 10:06:25;;;;;;;6.28;3.95;;;;;;;21.56;29.38;100185.25;5085820;28;20032;-20
2021/09/24 10:08:58;;;;;;;7.15;4.40;;;;;;;21.75;29.72;100170.94;5088873;28;20047;-20
2021/09/24 10:11:34;;;;;;;7.72;4.32;;;;;;;21.75;28.50;100181.78;5089050;28;20067;-20
2021/09/24 10:14:05;;;;;;;6.10;4.10;;;;;;;21.86;29.24;100183.25;5089036;28;20044;-20
2021/09/24 10:16:33;;;;;;;6.00;4.22;;;;;;;21.90;28.51;100170.72;5088788;28;20028;-20
2021/09/24 10:18:59;;;;;;;7.43;4.03;;;;;;;21.44;29.58;100157.72;5088792;28;20032;-20
2021/09/24 10:21:24;;;;;;;6.70;4.18;;;;;;;22.04;29.25;100155.31;5088921;28;20028;-20
2021/09/24 10:23:50;;;;;;;6.18;3.80;;;;;;;22.61;27.90;100152.56;5088806;28;20043;-20
2021/09/24 10:26:33;;;;;;;5.50;4.10;;;;;;;22.54;27.17;100156.78;5088565;28;20024;-21
2021/09/24 10:29:13;;;;;;;7.40;4.93;;;;;;;22.52;28.00;100159.00;5073335;28;20036;-20
2021/09/24 10:31:41;;;;;;;6.10;3.83;;;;;;;22.42;27.45;100152.63;5088621;28;20036;-20
2021/09/24 10:34:07;;;;;;;7.25;4.22;;;;;;;21.94;28.05;100150.03;5088669;28;20056;-20
2021/09/24 10:36:50;;;;;;;6.97;4.10;;;;;;;22.05;27.69;100145.28;5092754;28;20081;-20
2021/09/24 10:39:31;;;;;;;6.97;4.18;;;;;;;22.54;28.06;100151.38;5092817;28;20036;-20
2021/09/24 10:42:14;;;;;;;6.55;4.10;;;;;;;22.57;27.50;100153.47;5092706;28;20040;-21
2021/09/24 10:45:01;;;;;;;8.38;3.83;;;;;;;22.57;28.92;100131.72;5092471;28;20113;-20
2021/09/24 10:47:48;;;;;;;8.27;4.43;;;;;;;22.99;27.16;100146.25;5092657;28;20028;-21
2021/09/24 10:50:29;;;;;;;5.70;4.20;;;;;;;22.80;26.78;100143.56;5092437;28;20093;-20
2021/09/24 10:55:35;;;;;;;7.13;4.57;;;;;;;22.57;28.30;100120.84;5092608;28;20089;-21
2021/09/24 10:58:01;;;;;;;6.47;4.13;;;;;;;22.66;27.74;100116.38;5092773;28;20138;-20
2021/09/24 11:00:28;;;;;;;6.32;3.83;;;;;;;23.15;26.54;100095.91;5092369;28;20036;-20
2021/09/24 11:03:09;;;;;;;9.10;4.47;;;;;;;22.91;27.31;100111.59;5092032;28;20067;-20
2021/09/24 11:05:54;;;;;;;6.78;4.28;;;;;;;23.29;26.72;100101.31;5092122;28;20065;-20
2021/09/24 11:08:29;;;;;;;7.55;4.18;;;;;;;23.48;25.88;100093.06;5092397;28;20178;-20
2021/09/24 11:11:20;;;;;;;6.45;4.53;;;;;;;23.27;26.73;100088.06;5091904;28;20031;-21
2021/09/24 11:13:59;;;;;;;7.93;4.25;;;;;;;23.34;25.79;100090.34;5068344;28;20047;-21
2021/09/24 11:16:43;;;;;;;7.55;4.35;;;;;;;24.02;25.93;100085.88;5092007;28;20039;-20
2021/09/24 11:19:38;;;;;;;6.45;3.88;;;;;;;24.17;24.92;100075.75;5092007;28;20028;-20
2021/09/24 11:22:14;;;;;;;6.88;3.95;;;;;;;23.78;27.95;100064.41;5091967;28;20415;-21
2021/09/24 11:24:41;;;;;;;7.00;4.30;;;;;;;23.63;26.06;100051.09;5091589;28;20030;-21